Time;durP1;ratioP1;P1;durP2;ratioP2;P2;SDS_P1;SDS_P2;PMS_P1;PMS_P2;Temp;Humidity;BMP_temperature;BMP_pressure;BME280_temperature;BME280_humidity;BME280_pressure;Samples;Min_cycle;Max_cycle;Signal;HPM_P1;HPM_P2
2023/10/06 02:46:55;;;;;;;10.10;4.40;;;;;;;19.31;56.40;100819.52;106505;1251;68677;-85
2023/10/06 02:49:48;;;;;;;10.90;4.00;;;;;;;19.28;56.51;100809.92;106484;1256;72720;-85
2023/10/06 02:52:42;;;;;;;8.10;3.70;;;;;;;19.24;56.69;100816.38;106466;1251;60587;-85
2023/10/06 02:55:33;;;;;;;13.10;4.00;;;;;;;19.25;56.81;100823.39;106263;1252;60479;-85
2023/10/06 02:58:30;;;;;;;8.20;3.90;;;;;;;19.37;56.40;100821.61;106480;1251;73824;-85
2023/10/06 03:01:19;;;;;;;10.50;4.30;;;;;;;19.34;56.24;100816.21;106336;1254;67619;-86
2023/10/06 03:04:08;;;;;;;8.90;3.70;;;;;;;19.33;56.25;100812.19;106022;1258;71403;-85
2023/10/06 03:06:58;;;;;;;9.60;3.90;;;;;;;19.38;56.21;100811.98;107232;1253;60375;-88
2023/10/06 03:09:47;;;;;;;9.20;4.20;;;;;;;19.40;56.19;100810.34;106355;1251;60428;-87
2023/10/06 03:12:39;;;;;;;9.70;4.10;;;;;;;19.40;56.25;100805.90;106354;1251;72544;-88
2023/10/06 03:15:33;;;;;;;10.80;4.00;;;;;;;19.37;56.39;100798.56;106347;1251;68385;-85
2023/10/06 03:18:28;;;;;;;9.80;3.70;;;;;;;19.36;56.47;100804.17;106227;1257;71281;-88
2023/10/06 03:21:18;;;;;;;8.30;4.30;;;;;;;19.36;56.57;100810.81;106299;1251;61067;-85
2023/10/06 03:24:11;;;;;;;15.20;3.80;;;;;;;19.42;56.58;100807.97;106382;1251;60490;-88
2023/10/06 03:27:11;;;;;;;9.20;3.70;;;;;;;19.41;56.51;100808.27;106320;1251;73885;-87
2023/10/06 03:30:49;;;;;;;9.20;3.80;;;;;;;19.31;56.78;100804.21;107167;1254;67171;-88
2023/10/06 03:33:12;;;;;;;8.60;3.60;;;;;;;19.26;57.30;100804.77;106425;1251;72715;-85
2023/10/06 03:36:04;;;;;;;12.80;4.10;;;;;;;19.24;57.34;100802.85;106386;1252;60791;-85
2023/10/06 03:38:56;;;;;;;7.80;3.40;;;;;;;19.21;57.54;100802.95;106232;1251;60484;-90
2023/10/06 03:41:46;;;;;;;10.50;4.20;;;;;;;19.16;57.85;100801.96;106297;1257;74946;-85
2023/10/06 03:44:35;;;;;;;9.00;3.50;;;;;;;19.11;57.85;100801.13;107172;1252;67981;-85
2023/10/06 03:47:24;;;;;;;9.90;3.80;;;;;;;19.05;58.26;100800.52;106263;1251;72828;-84
2023/10/06 03:50:14;;;;;;;10.40;4.10;;;;;;;18.99;58.56;100806.14;106253;1251;60521;-87
2023/10/06 03:53:03;;;;;;;9.70;3.90;;;;;;;18.92;58.85;100810.08;106191;1251;60322;-90
2023/10/06 03:55:56;;;;;;;10.40;3.50;;;;;;;18.85;59.32;100815.78;106327;1257;73860;-87
2023/10/06 03:58:45;;;;;;;9.70;4.10;;;;;;;18.77;60.02;100817.48;106440;1251;67134;-88
2023/10/06 04:01:37;;;;;;;11.60;4.30;;;;;;;18.80;60.17;100811.42;106268;1256;71445;-90
2023/10/06 04:04:29;;;;;;;10.20;4.00;;;;;;;18.77;60.23;100813.70;106347;1251;60895;-88
2023/10/06 04:07:19;;;;;;;7.90;3.60;;;;;;;18.75;60.61;100815.79;106374;1257;60485;-85
2023/10/06 04:10:14;;;;;;;11.30;3.50;;;;;;;18.77;61.13;100811.29;106763;1258;72285;-85
2023/10/06 04:13:05;;;;;;;12.70;4.60;;;;;;;18.74;61.39;100817.70;106456;1257;68749;-89
2023/10/06 04:15:56;;;;;;;9.20;3.90;;;;;;;18.68;61.65;100825.65;106331;1254;71470;-89
2023/10/06 04:18:47;;;;;;;12.90;4.00;;;;;;;18.62;62.11;100829.39;106344;1257;60540;-90
2023/10/06 04:21:37;;;;;;;21.90;4.90;;;;;;;18.57;62.50;100830.19;106290;1251;60546;-90
2023/10/06 04:24:27;;;;;;;9.60;3.60;;;;;;;18.55;62.99;100832.00;108463;1251;73882;-86
2023/10/06 04:27:16;;;;;;;8.80;3.70;;;;;;;18.53;63.15;100833.80;106231;1255;67596;-86
2023/10/06 04:30:11;;;;;;;7.40;3.90;;;;;;;18.45;63.96;100836.36;106380;1254;72460;-89
2023/10/06 04:33:00;;;;;;;9.50;3.60;;;;;;;18.47;63.90;100832.66;106345;1251;60946;-91
2023/10/06 04:35:55;;;;;;;10.30;4.20;;;;;;;18.45;63.90;100832.77;106262;1255;60397;-89
2023/10/06 04:38:45;;;;;;;11.60;3.50;;;;;;;18.37;64.70;100837.34;106405;1257;73829;-89
2023/10/06 04:41:34;;;;;;;10.60;4.40;;;;;;;18.33;65.38;100836.73;106444;1256;67544;-89
2023/10/06 04:44:22;;;;;;;8.40;3.40;;;;;;;18.32;65.80;100838.17;107517;1251;71371;-91
2023/10/06 04:47:11;;;;;;;10.70;3.80;;;;;;;18.36;65.93;100843.05;107786;1253;61701;-86
2023/10/06 04:49:59;;;;;;;11.10;3.80;;;;;;;18.35;66.43;100847.13;106355;1257;60356;-90
2023/10/06 04:52:48;;;;;;;7.80;3.80;;;;;;;18.37;67.12;100852.34;106313;1251;73900;-91
2023/10/06 04:55:38;;;;;;;9.60;4.10;;;;;;;18.42;67.05;100853.29;106458;1251;68246;-87
2023/10/06 04:58:29;;;;;;;11.80;4.00;;;;;;;18.49;67.32;100857.24;106584;1251;73432;-86
2023/10/06 05:01:18;;;;;;;9.90;3.80;;;;;;;18.57;67.47;100855.98;106372;1257;61096;-86
2023/10/06 05:04:09;;;;;;;10.10;3.70;;;;;;;18.64;67.59;100856.44;106231;1259;59123;-87
2023/10/06 05:07:00;;;;;;;8.60;3.50;;;;;;;18.76;67.27;100856.77;107037;1251;73046;-84
2023/10/06 05:09:49;;;;;;;9.20;3.80;;;;;;;18.86;66.91;100857.21;106271;1260;67203;-85
2023/10/06 05:12:38;;;;;;;13.40;4.50;;;;;;;19.00;66.61;100860.83;106327;1251;71445;-86
2023/10/06 05:15:26;;;;;;;9.20;4.10;;;;;;;19.10;65.94;100852.52;106240;1254;60546;-89
2023/10/06 05:18:16;;;;;;;10.00;3.90;;;;;;;19.23;65.46;100852.70;106263;1251;60316;-86
2023/10/06 05:21:08;;;;;;;7.30;3.70;;;;;;;19.38;64.89;100859.13;108448;1254;73769;-88
2023/10/06 05:23:58;;;;;;;10.10;3.80;;;;;;;19.48;64.53;100859.36;106149;1255;67125;-84
2023/10/06 05:26:47;;;;;;;8.50;3.50;;;;;;;19.60;64.06;100864.58;106215;1254;72690;-85
2023/10/06 05:29:36;;;;;;;8.20;3.30;;;;;;;19.75;62.86;100864.64;106187;1251;61105;-86
2023/10/06 05:32:24;;;;;;;10.20;4.30;;;;;;;19.90;61.75;100863.56;106301;1251;60557;-88
2023/10/06 05:35:14;;;;;;;9.80;3.40;;;;;;;20.02;60.75;100861.92;106664;1251;74184;-89
2023/10/06 05:38:08;;;;;;;6.50;3.30;;;;;;;20.13;60.06;100862.81;106298;1251;68735;-86
2023/10/06 05:41:01;;;;;;;9.90;3.20;;;;;;;20.27;59.27;100864.51;106375;1253;71136;-92
2023/10/06 05:43:50;;;;;;;10.20;3.10;;;;;;;20.38;58.83;100869.65;106313;1253;61128;-85
2023/10/06 05:46:39;;;;;;;8.40;3.20;;;;;;;20.48;57.43;100867.35;106426;1251;60204;-86
2023/10/06 05:49:32;;;;;;;13.60;3.70;;;;;;;20.61;56.66;100872.56;106283;1251;72430;-90
2023/10/06 05:52:22;;;;;;;9.10;3.30;;;;;;;20.69;55.89;100877.40;107653;1251;68311;-90
2023/10/06 05:55:12;;;;;;;6.70;2.90;;;;;;;20.83;55.33;100875.86;106448;1254;71411;-86
2023/10/06 05:58:03;;;;;;;8.80;3.10;;;;;;;20.98;54.05;100877.80;106261;1257;60520;-87
2023/10/06 06:00:52;;;;;;;9.00;3.20;;;;;;;21.03;53.34;100884.31;106245;1253;60319;-85
2023/10/06 06:03:49;;;;;;;6.50;2.70;;;;;;;21.11;53.20;100886.05;106260;1253;72506;-85
2023/10/06 06:06:39;;;;;;;7.60;2.80;;;;;;;21.19;52.64;100889.84;106727;1258;67252;-85
2023/10/06 06:09:30;;;;;;;26.40;4.20;;;;;;;21.30;52.22;100889.77;106257;1251;73241;-85
2023/10/06 06:12:21;;;;;;;14.30;3.30;;;;;;;21.40;51.09;100893.27;106393;1254;60611;-86
2023/10/06 06:15:11;;;;;;;11.40;3.40;;;;;;;21.50;50.12;100895.03;106371;1251;60306;-87
2023/10/06 06:18:00;;;;;;;18.80;3.50;;;;;;;21.51;49.12;100893.25;106223;1254;73789;-87
2023/10/06 06:20:49;;;;;;;9.30;2.90;;;;;;;21.54;49.36;100891.98;106497;1257;69514;-86
2023/10/06 06:23:38;;;;;;;8.20;3.50;;;;;;;21.63;49.34;100896.84;106517;1254;71529;-87
2023/10/06 06:26:31;;;;;;;9.20;3.30;;;;;;;21.68;49.37;100898.71;106341;1253;60421;-86
2023/10/06 06:29:20;;;;;;;6.80;2.30;;;;;;;21.79;48.93;100902.88;106224;1256;60534;-86
2023/10/06 06:32:11;;;;;;;13.40;3.20;;;;;;;21.91;48.51;100903.30;106378;1256;72026;-85
2023/10/06 06:35:00;;;;;;;10.20;2.70;;;;;;;21.99;47.37;100902.62;107678;1251;69133;-84
2023/10/06 06:37:51;;;;;;;8.50;2.90;;;;;;;21.98;46.99;100903.35;106826;1254;72370;-84
2023/10/06 06:40:40;;;;;;;7.00;2.40;;;;;;;22.01;47.14;100904.49;106307;1253;60521;-87
2023/10/06 06:43:29;;;;;;;8.70;2.30;;;;;;;22.07;46.96;100903.20;106461;1251;60380;-86
2023/10/06 06:46:18;;;;;;;9.10;2.40;;;;;;;22.19;46.59;100904.94;106232;1253;73824;-87
2023/10/06 06:49:07;;;;;;;9.50;2.20;;;;;;;22.27;45.87;100906.77;106247;1256;67143;-87
2023/10/06 06:51:58;;;;;;;7.00;2.00;;;;;;;22.36;45.11;100904.95;106368;1253;71795;-85
2023/10/06 06:54:48;;;;;;;6.20;2.30;;;;;;;22.43;45.38;100909.95;106404;1251;60518;-86
2023/10/06 06:57:48;;;;;;;7.90;2.20;;;;;;;22.55;44.00;100911.30;106390;1258;60540;-85
2023/10/06 07:00:47;;;;;;;4.90;2.00;;;;;;;22.52;43.03;100907.30;106371;1257;73771;-84
2023/10/06 07:03:37;;;;;;;6.90;2.10;;;;;;;22.56;42.92;100901.70;106316;1251;67596;-84
2023/10/06 07:06:26;;;;;;;5.40;2.40;;;;;;;22.59;42.59;100909.52;106271;1251;72660;-84
2023/10/06 07:09:17;;;;;;;7.50;2.60;;;;;;;22.73;42.26;100909.89;107083;1256;60435;-86
2023/10/06 07:12:06;;;;;;;4.70;1.80;;;;;;;22.91;42.05;100912.71;106328;1251;61217;-87
2023/10/06 07:14:56;;;;;;;14.10;2.00;;;;;;;23.05;41.88;100913.83;106411;1257;73837;-86
2023/10/06 07:17:53;;;;;;;13.00;2.40;;;;;;;23.12;41.27;100918.33;106299;1253;68682;-87
2023/10/06 07:20:44;;;;;;;5.20;1.70;;;;;;;23.11;40.91;100915.83;106378;1251;72694;-85
2023/10/06 07:23:34;;;;;;;3.80;1.70;;;;;;;23.15;41.07;100914.84;106397;1251;60775;-86
2023/10/06 07:26:23;;;;;;;4.10;1.60;;;;;;;23.29;40.73;100917.85;106373;1251;60460;-86
2023/10/06 07:29:15;;;;;;;4.80;1.90;;;;;;;23.42;40.54;100918.05;106416;1253;73887;-86
2023/10/06 07:32:05;;;;;;;20.70;2.70;;;;;;;23.51;40.29;100922.77;106350;1251;67531;-85
2023/10/06 07:34:55;;;;;;;9.00;2.30;;;;;;;23.60;39.33;100923.02;106392;1255;72899;-85
2023/10/06 07:37:45;;;;;;;3.40;1.90;;;;;;;23.58;39.38;100931.98;106450;1257;60419;-85
2023/10/06 07:40:33;;;;;;;3.50;1.80;;;;;;;23.46;38.91;100928.83;106343;1257;60438;-85
2023/10/06 07:43:23;;;;;;;4.20;1.70;;;;;;;23.39;39.20;100931.11;106375;1253;74789;-86
2023/10/06 07:46:13;;;;;;;5.40;2.10;;;;;;;23.30;39.40;100926.95;106378;1251;67782;-86
2023/10/06 07:49:04;;;;;;;5.00;1.80;;;;;;;23.17;39.85;100929.13;106370;1251;72721;-88
2023/10/06 07:51:55;;;;;;;3.50;1.50;;;;;;;23.09;39.82;100934.64;106345;1253;60299;-84
2023/10/06 07:54:44;;;;;;;5.00;1.80;;;;;;;23.06;39.87;100937.17;106450;1251;60854;-87
2023/10/06 07:57:36;;;;;;;4.40;1.80;;;;;;;23.07;39.68;100939.11;106429;1251;73809;-86
2023/10/06 08:00:28;;;;;;;4.20;1.90;;;;;;;23.07;39.75;100938.40;106361;1256;68817;-85
2023/10/06 08:03:16;;;;;;;4.20;1.80;;;;;;;23.05;40.04;100940.48;106350;1251;72463;-85
2023/10/06 08:06:05;;;;;;;3.80;1.60;;;;;;;23.06;40.23;100947.51;106421;1251;60453;-87
2023/10/06 08:08:54;;;;;;;5.10;1.70;;;;;;;23.10;39.86;100947.73;106462;1251;60614;-86
2023/10/06 08:11:43;;;;;;;3.40;1.70;;;;;;;23.19;39.46;100938.83;106370;1251;72644;-86
2023/10/06 08:14:34;;;;;;;5.20;1.70;;;;;;;23.31;39.53;100947.38;106462;1251;67950;-85
2023/10/06 08:17:23;;;;;;;4.60;2.10;;;;;;;23.37;39.32;100943.65;106271;1255;72473;-88
2023/10/06 08:20:15;;;;;;;5.10;1.50;;;;;;;23.37;39.39;100947.73;106380;1253;60550;-85
2023/10/06 08:23:05;;;;;;;6.60;1.60;;;;;;;23.40;39.09;100947.23;106420;1251;60592;-86
2023/10/06 08:25:56;;;;;;;3.20;1.70;;;;;;;23.42;38.88;100946.27;106263;1257;73966;-86
2023/10/06 08:28:49;;;;;;;3.60;1.30;;;;;;;23.52;38.71;100942.64;106271;1257;67853;-85
2023/10/06 08:31:38;;;;;;;3.50;1.50;;;;;;;23.51;38.47;100940.08;106315;1253;72807;-87
2023/10/06 08:34:27;;;;;;;11.50;2.20;;;;;;;23.46;38.45;100935.45;106432;1258;61756;-88
2023/10/06 08:37:19;;;;;;;3.60;1.40;;;;;;;23.48;38.88;100938.08;106285;1251;60585;-87
2023/10/06 08:40:19;;;;;;;5.10;1.90;;;;;;;23.52;38.81;100936.50;106330;1258;73844;-87
2023/10/06 08:43:08;;;;;;;4.80;1.80;;;;;;;23.53;38.75;100940.61;106354;1256;68400;-86
2023/10/06 08:46:00;;;;;;;4.40;1.70;;;;;;;23.45;38.24;100942.67;106285;1251;72626;-86
2023/10/06 08:48:50;;;;;;;2.00;1.10;;;;;;;23.31;38.17;100948.41;106263;1257;60543;-88
2023/10/06 08:51:39;;;;;;;6.80;1.50;;;;;;;23.17;38.58;100953.59;106518;1256;60405;-86
2023/10/06 08:54:30;;;;;;;2.30;1.20;;;;;;;23.09;38.20;100949.52;108625;1253;72574;-87
2023/10/06 08:57:18;;;;;;;2.30;1.10;;;;;;;22.94;38.52;100950.05;107623;1251;67352;-87
2023/10/06 09:00:07;;;;;;;3.80;1.40;;;;;;;23.04;38.92;100950.40;107249;1251;71211;-87
2023/10/06 09:03:03;;;;;;;3.50;1.30;;;;;;;23.26;38.65;100949.70;108242;1258;61656;-87
2023/10/06 09:05:54;;;;;;;8.40;1.40;;;;;;;23.53;37.35;100955.90;106744;1251;60793;-86
2023/10/06 09:08:43;;;;;;;6.60;2.00;;;;;;;23.69;36.45;100955.21;106295;1253;75244;-85
2023/10/06 09:11:39;;;;;;;3.30;1.20;;;;;;;23.74;36.14;100952.51;106374;1252;68699;-86
2023/10/06 09:14:28;;;;;;;4.10;1.30;;;;;;;23.75;36.49;100950.39;106262;1256;72915;-87
2023/10/06 09:17:31;;;;;;;6.40;1.30;;;;;;;23.78;36.58;100952.54;106477;1255;60501;-85
2023/10/06 09:20:36;;;;;;;2.70;1.10;;;;;;;23.92;36.84;100955.17;106426;1253;61129;-85
2023/10/06 09:23:39;;;;;;;5.80;1.40;;;;;;;24.19;37.18;100957.69;106406;1256;75632;-85
2023/10/06 09:26:29;;;;;;;8.70;1.50;;;;;;;24.38;36.37;100950.91;106377;1252;68903;-86
2023/10/06 09:29:30;;;;;;;2.70;1.40;;;;;;;24.39;36.08;100953.41;106327;1253;73211;-87
2023/10/06 09:32:20;;;;;;;3.30;1.30;;;;;;;24.42;35.45;100958.60;106348;1257;60546;-87
2023/10/06 09:35:19;;;;;;;3.00;1.30;;;;;;;24.35;35.48;100960.49;106421;1251;60344;-85
2023/10/06 09:38:15;;;;;;;4.60;1.10;;;;;;;24.21;35.31;100965.65;106320;1257;73872;-86
2023/10/06 09:41:07;;;;;;;3.30;1.00;;;;;;;24.04;35.00;100965.53;106357;1253;69159;-87
2023/10/06 09:43:59;;;;;;;9.20;1.10;;;;;;;23.99;34.98;100963.25;106241;1251;72672;-88
2023/10/06 09:46:52;;;;;;;4.70;1.10;;;;;;;23.96;34.17;100965.41;106289;1251;60445;-86
2023/10/06 09:49:40;;;;;;;6.50;1.40;;;;;;;23.80;33.71;100957.94;106449;1257;60209;-86
2023/10/06 09:52:30;;;;;;;6.60;1.80;;;;;;;23.62;33.86;100957.89;106502;1256;74987;-85
2023/10/06 09:55:20;;;;;;;3.30;1.20;;;;;;;23.57;33.77;100960.17;106431;1257;68241;-87
2023/10/06 09:58:08;;;;;;;4.00;1.40;;;;;;;23.53;33.75;100952.00;106618;1253;72615;-84
2023/10/06 10:01:00;;;;;;;8.80;3.50;;;;;;;23.58;34.01;100954.36;106378;1253;60547;-84
2023/10/06 10:03:54;;;;;;;9.10;1.40;;;;;;;23.76;34.28;100948.66;106348;1253;60486;-86
2023/10/06 10:06:43;;;;;;;2.10;0.90;;;;;;;23.96;32.24;100950.48;106451;1253;74168;-87
2023/10/06 10:09:34;;;;;;;6.00;1.00;;;;;;;24.00;31.98;100946.53;106356;1253;67900;-85
2023/10/06 10:12:57;;;;;;;5.70;1.00;;;;;;;24.02;32.49;100948.17;106321;1253;71431;-85
2023/10/06 10:16:09;;;;;;;3.80;0.80;;;;;;;24.11;31.78;100948.56;106227;1251;60508;-86
2023/10/06 10:19:04;;;;;;;4.40;0.80;;;;;;;24.20;31.95;100940.16;106606;1251;61054;-86
2023/10/06 10:21:56;;;;;;;5.20;1.30;;;;;;;24.31;31.84;100945.21;106295;1251;73771;-85
2023/10/06 10:24:46;;;;;;;5.10;1.10;;;;;;;24.35;31.81;100940.23;106428;1253;68712;-85
2023/10/06 10:27:37;;;;;;;7.30;1.30;;;;;;;24.39;31.90;100938.96;106547;1253;75442;-85
2023/10/06 10:30:56;;;;;;;7.40;2.80;;;;;;;24.38;31.59;100944.79;106391;1256;60428;-85
2023/10/06 10:33:47;;;;;;;6.40;1.20;;;;;;;24.34;31.69;100941.48;106665;1253;61707;-86
2023/10/06 10:36:35;;;;;;;1.60;0.80;;;;;;;24.26;32.00;100948.20;106378;1258;73844;-85
2023/10/06 10:39:29;;;;;;;6.60;1.10;;;;;;;24.20;32.27;100944.16;106417;1253;71455;-86
2023/10/06 10:42:22;;;;;;;4.70;1.00;;;;;;;24.20;32.53;100948.05;106312;1258;73083;-84
2023/10/06 10:45:34;;;;;;;10.30;1.90;;;;;;;24.16;32.57;100943.51;106515;1256;60371;-86
2023/10/06 10:48:25;;;;;;;15.60;2.40;;;;;;;24.16;32.74;100949.80;106292;1253;61552;-85
2023/10/06 10:51:15;;;;;;;3.60;1.00;;;;;;;24.20;32.53;100949.52;106395;1253;72576;-85
2023/10/06 10:54:05;;;;;;;5.80;1.70;;;;;;;24.24;32.67;100945.86;106425;1253;68445;-86
2023/10/06 10:57:01;;;;;;;12.60;4.10;;;;;;;24.20;32.71;100949.03;106187;1258;72378;-86
2023/10/06 11:00:00;;;;;;;5.50;2.60;;;;;;;24.23;33.19;100943.61;106382;1253;60460;-86
2023/10/06 11:03:19;;;;;;;12.30;4.60;;;;;;;24.36;33.11;100943.04;106413;1253;60359;-86
2023/10/06 11:06:08;;;;;;;10.50;2.20;;;;;;;24.43;32.58;100942.58;106391;1257;73928;-87
2023/10/06 11:08:57;;;;;;;2.40;1.00;;;;;;;24.53;31.36;100943.23;106396;1257;68450;-85
2023/10/06 11:11:46;;;;;;;3.00;1.20;;;;;;;24.45;30.96;100949.67;106492;1252;72618;-84
2023/10/06 11:14:38;;;;;;;10.00;3.20;;;;;;;24.41;30.95;100943.48;106288;1254;61601;-86
2023/10/06 11:17:29;;;;;;;7.80;2.40;;;;;;;24.44;30.88;100943.48;106401;1255;60382;-86
2023/10/06 11:20:27;;;;;;;11.10;2.80;;;;;;;24.46;31.03;100945.61;106444;1253;73862;-85
2023/10/06 11:23:16;;;;;;;4.00;1.30;;;;;;;24.53;30.86;100942.52;107326;1252;67107;-87
2023/10/06 11:26:06;;;;;;;2.10;1.20;;;;;;;24.60;30.76;100942.07;106910;1253;73803;-85
2023/10/06 11:28:57;;;;;;;7.30;2.80;;;;;;;24.61;30.64;100941.29;108572;1253;58719;-85
2023/10/06 11:31:50;;;;;;;8.20;4.10;;;;;;;24.49;30.17;100936.52;106505;1256;60585;-86
2023/10/06 11:34:44;;;;;;;22.70;7.50;;;;;;;24.30;29.69;100940.98;106343;1253;75040;-86
2023/10/06 11:37:33;;;;;;;7.60;4.60;;;;;;;24.18;29.68;100939.00;106545;1256;68427;-86
2023/10/06 11:40:24;;;;;;;12.10;5.20;;;;;;;24.09;29.63;100937.52;108351;1251;74852;-87
2023/10/06 11:43:21;;;;;;;11.80;3.60;;;;;;;23.98;29.23;100939.44;106426;1257;60454;-84
2023/10/06 11:46:50;;;;;;;5.90;1.50;;;;;;;23.90;29.33;100942.04;106859;1256;60499;-84
2023/10/06 11:49:58;;;;;;;10.00;1.90;;;;;;;23.90;29.30;100940.52;106519;1253;73777;-84
2023/10/06 11:52:49;;;;;;;7.70;1.50;;;;;;;23.92;29.06;100938.25;106447;1253;69981;-86
2023/10/06 11:55:39;;;;;;;11.30;1.90;;;;;;;23.92;28.85;100942.97;106381;1251;72740;-86
2023/10/06 11:58:36;;;;;;;15.70;4.10;;;;;;;23.94;28.56;100940.45;106395;1253;61342;-84
2023/10/06 12:01:37;;;;;;;8.70;2.40;;;;;;;23.95;28.74;100942.00;106292;1256;60489;-84
2023/10/06 12:04:32;;;;;;;9.00;4.60;;;;;;;23.95;28.93;100943.53;106459;1257;72570;-85
2023/10/06 12:07:22;;;;;;;35.20;10.10;;;;;;;23.97;29.01;100940.95;106567;1257;70866;-85
2023/10/06 12:10:11;;;;;;;16.70;8.30;;;;;;;24.02;28.92;100943.38;106331;1253;72750;-86
2023/10/06 12:13:00;;;;;;;4.50;3.00;;;;;;;23.90;28.57;100945.92;106299;1251;60476;-85
2023/10/06 12:15:49;;;;;;;16.10;5.60;;;;;;;23.89;28.72;100944.88;106408;1258;60326;-85
2023/10/06 12:18:43;;;;;;;7.50;2.80;;;;;;;23.92;28.79;100942.33;106366;1253;74016;-86
2023/10/06 12:21:32;;;;;;;11.30;1.60;;;;;;;23.98;27.99;100945.27;106364;1256;70710;-86
2023/10/06 12:24:22;;;;;;;8.00;1.10;;;;;;;23.99;27.97;100940.98;106307;1257;73081;-84
2023/10/06 12:27:11;;;;;;;6.20;1.20;;;;;;;23.97;28.08;100942.45;106354;1254;62861;-85
2023/10/06 12:30:03;;;;;;;11.30;1.60;;;;;;;23.99;28.05;100946.02;106316;1251;61407;-86
2023/10/06 12:32:51;;;;;;;4.70;1.20;;;;;;;23.99;28.19;100945.45;106261;1257;73932;-86
2023/10/06 12:35:40;;;;;;;8.00;1.00;;;;;;;23.98;28.33;100946.16;106356;1252;67419;-84
2023/10/06 12:38:30;;;;;;;3.40;1.30;;;;;;;24.00;28.17;100941.42;106447;1253;71578;-85
2023/10/06 12:41:20;;;;;;;20.40;1.90;;;;;;;24.01;28.39;100946.48;106473;1253;60431;-86
2023/10/06 12:44:09;;;;;;;4.50;0.80;;;;;;;23.97;28.66;100944.86;106373;1251;60445;-86
2023/10/06 12:47:03;;;;;;;7.30;1.10;;;;;;;24.01;29.07;100946.70;106292;1251;74990;-86
2023/10/06 12:49:52;;;;;;;2.50;1.10;;;;;;;24.01;29.04;100945.75;106467;1253;68385;-86
2023/10/06 12:52:41;;;;;;;8.00;2.40;;;;;;;23.92;29.24;100941.92;106481;1253;72930;-86
2023/10/06 12:55:56;;;;;;;30.30;2.70;;;;;;;23.91;29.47;100942.06;106407;1253;60556;-84
2023/10/06 12:58:45;;;;;;;3.80;1.00;;;;;;;23.90;28.93;100950.08;106225;1252;60520;-86
2023/10/06 13:01:34;;;;;;;3.20;0.90;;;;;;;23.87;28.30;100953.52;106378;1253;74828;-87
2023/10/06 13:04:23;;;;;;;5.90;1.10;;;;;;;23.83;28.56;100953.17;106416;1251;67810;-85
2023/10/06 13:07:12;;;;;;;5.20;1.20;;;;;;;23.80;28.55;100966.48;106294;1253;72693;-86
2023/10/06 13:10:06;;;;;;;3.30;0.90;;;;;;;23.68;28.46;100970.27;106247;1254;60607;-84
2023/10/06 13:12:54;;;;;;;7.10;0.80;;;;;;;23.64;28.39;100973.59;106556;1253;60512;-86
2023/10/06 13:15:45;;;;;;;2.70;0.80;;;;;;;23.59;28.57;100971.52;106194;1253;74080;-86
2023/10/06 13:18:36;;;;;;;6.00;1.00;;;;;;;23.61;28.84;100976.27;106353;1257;69987;-84
2023/10/06 13:21:28;;;;;;;4.80;0.90;;;;;;;23.59;28.72;100978.70;106223;1253;71452;-85
2023/10/06 13:24:16;;;;;;;5.20;0.70;;;;;;;23.57;28.59;100974.04;106320;1253;61404;-84
2023/10/06 13:27:08;;;;;;;6.80;0.90;;;;;;;23.53;28.35;100974.48;106374;1253;60409;-85
2023/10/06 13:29:57;;;;;;;5.70;1.00;;;;;;;23.42;28.33;100980.60;106355;1253;73896;-84
2023/10/06 13:32:51;;;;;;;15.30;2.50;;;;;;;23.36;28.39;100984.26;106345;1257;72076;-86
2023/10/06 13:35:41;;;;;;;4.10;1.50;;;;;;;23.38;28.61;100987.26;106521;1254;71470;-85
2023/10/06 13:38:33;;;;;;;5.30;1.00;;;;;;;23.33;28.74;100991.42;106320;1261;60526;-85
2023/10/06 13:41:23;;;;;;;3.80;0.80;;;;;;;23.30;28.50;100998.80;106292;1258;200809;-86
2023/10/06 13:44:13;;;;;;;5.60;1.10;;;;;;;23.26;28.56;100993.44;106508;1252;72553;-84
2023/10/06 13:47:05;;;;;;;3.00;1.20;;;;;;;23.16;28.97;101000.56;106400;1254;67879;-84
2023/10/06 13:49:54;;;;;;;3.80;0.90;;;;;;;23.09;29.05;101004.08;106442;1257;72704;-85
2023/10/06 13:52:43;;;;;;;7.20;1.60;;;;;;;23.02;29.26;101003.45;106402;1253;60420;-86
2023/10/06 13:55:36;;;;;;;4.40;1.00;;;;;;;22.94;29.47;101005.79;106439;1253;60522;-86
2023/10/06 13:58:25;;;;;;;3.10;1.00;;;;;;;22.89;29.42;101003.96;106378;1260;74312;-87
2023/10/06 14:01:15;;;;;;;3.20;0.90;;;;;;;22.82;29.46;101014.42;106372;1262;67577;-87
2023/10/06 14:04:04;;;;;;;5.10;1.30;;;;;;;22.79;29.52;101017.58;106490;1253;71853;-86
2023/10/06 14:06:55;;;;;;;16.00;2.50;;;;;;;22.75;29.49;101016.67;106411;1253;62582;-85
2023/10/06 14:09:44;;;;;;;7.40;1.60;;;;;;;22.74;29.15;101023.07;106414;1258;59224;-86
2023/10/06 14:12:33;;;;;;;3.20;1.40;;;;;;;22.66;28.93;101021.71;106369;1261;72689;-86
2023/10/06 14:15:30;;;;;;;6.90;1.60;;;;;;;22.60;29.07;101022.94;106457;1251;68391;-86
2023/10/06 14:18:23;;;;;;;7.50;2.00;;;;;;;22.49;29.09;101022.33;106583;1252;71439;-86
2023/10/06 14:21:13;;;;;;;3.10;1.20;;;;;;;22.36;28.97;101025.64;106202;1256;60595;-85
2023/10/06 14:24:05;;;;;;;3.30;1.30;;;;;;;22.27;29.24;101032.49;106303;1251;60424;-84
2023/10/06 14:26:55;;;;;;;7.50;1.50;;;;;;;22.16;29.33;101032.63;106389;1251;76019;-85
2023/10/06 14:29:44;;;;;;;5.40;1.40;;;;;;;22.04;29.12;101032.77;106493;1258;67565;-85
2023/10/06 14:32:42;;;;;;;4.00;1.20;;;;;;;22.01;29.14;101029.87;106196;1253;72473;-84
2023/10/06 14:47:51;;;;;;;4.90;1.10;;;;;;;21.56;29.67;101045.48;106383;1256;71408;-86
2023/10/06 14:50:41;;;;;;;9.30;1.80;;;;;;;21.47;29.99;101050.40;106403;1253;61165;-86
2023/10/06 14:53:30;;;;;;;3.40;1.30;;;;;;;21.41;30.31;101049.81;106353;1253;59356;-85
2023/10/06 14:56:19;;;;;;;17.50;2.30;;;;;;;21.29;30.49;101052.98;108878;1253;74174;-87
2023/10/06 14:59:10;;;;;;;9.90;2.60;;;;;;;21.17;30.83;101058.48;106445;1251;68433;-86
2023/10/06 15:02:06;;;;;;;4.20;1.90;;;;;;;21.05;31.11;101062.52;106418;1253;73003;-86
2023/10/06 15:04:56;;;;;;;9.00;1.80;;;;;;;20.92;31.43;101067.16;106443;1259;61231;-86
2023/10/06 15:07:46;;;;;;;12.60;2.10;;;;;;;20.82;31.61;101069.98;106464;1257;60455;-87
2023/10/06 15:10:34;;;;;;;5.60;1.50;;;;;;;20.74;31.81;101069.73;106325;1251;73827;-86
2023/10/06 15:13:23;;;;;;;5.00;1.00;;;;;;;20.63;31.92;101073.60;106344;1253;70743;-86
2023/10/06 15:16:12;;;;;;;7.00;2.40;;;;;;;20.58;31.93;101070.76;106357;1258;74060;-87
2023/10/06 15:19:01;;;;;;;5.60;2.10;;;;;;;20.46;32.18;101075.05;106206;1258;60948;-87
2023/10/06 15:21:52;;;;;;;17.10;3.60;;;;;;;20.33;32.10;101078.78;106742;1256;61864;-88
2023/10/06 15:24:41;;;;;;;9.30;2.60;;;;;;;20.27;32.36;101088.33;106320;1256;75055;-84
2023/10/06 15:27:31;;;;;;;9.60;1.90;;;;;;;20.20;32.32;101088.11;106353;1258;67217;-85
2023/10/06 15:30:20;;;;;;;4.00;1.10;;;;;;;20.11;32.35;101088.52;106304;1253;72712;-86
2023/10/06 15:33:10;;;;;;;16.40;2.10;;;;;;;20.07;32.42;101089.44;106420;1253;60544;-88
2023/10/06 15:36:01;;;;;;;5.70;1.10;;;;;;;20.01;32.56;101096.00;106566;1253;60445;-87
2023/10/06 15:38:49;;;;;;;2.90;0.80;;;;;;;19.93;32.68;101098.58;106725;1251;72550;-88
2023/10/06 15:41:38;;;;;;;4.60;1.30;;;;;;;19.85;32.91;101101.95;106488;1256;68097;-89
2023/10/06 15:44:27;;;;;;;6.50;1.40;;;;;;;19.78;32.93;101109.84;107757;1258;72571;-86
2023/10/06 15:47:36;;;;;;;4.10;1.30;;;;;;;19.63;33.27;101109.83;106524;1253;60430;-89
2023/10/06 15:50:26;;;;;;;4.70;1.00;;;;;;;19.53;33.37;101113.98;106511;1259;60378;-86
2023/10/06 15:53:16;;;;;;;12.00;1.80;;;;;;;19.42;33.52;101119.62;106346;1253;73878;-89
2023/10/06 15:56:14;;;;;;;13.60;2.00;;;;;;;19.35;33.78;101122.36;106409;1258;69946;-86
2023/10/06 15:59:03;;;;;;;3.90;1.20;;;;;;;19.22;34.02;101120.90;106410;1253;72706;-88
2023/10/06 16:01:54;;;;;;;9.90;1.60;;;;;;;19.12;34.33;101122.80;107631;1257;61184;-86
2023/10/06 16:04:45;;;;;;;10.40;3.00;;;;;;;18.98;34.59;101125.81;106285;1258;62203;-88